createdAt,value
2018-12-08T00:02:55.052Z,99293.01
2018-12-08T00:05:25.492Z,99291.67
2018-12-08T00:07:56.389Z,99291.03
2018-12-08T00:10:34.073Z,99301.14
2018-12-08T00:13:04.971Z,99302.28
2018-12-08T00:15:37.156Z,99313.34
2018-12-08T00:18:07.676Z,99311.62
2018-12-08T00:20:38.279Z,99314.78
2018-12-08T00:23:08.857Z,99322.78
2018-12-08T00:25:39.290Z,99330.82
2018-12-08T00:28:10.420Z,99328.02
2018-12-08T00:30:57.879Z,99328.59
2018-12-08T00:33:28.473Z,99330.83
2018-12-08T00:35:58.951Z,99341.79
2018-12-08T00:38:29.392Z,99345.88
2018-12-08T00:40:59.784Z,99333.34
2018-12-08T00:43:30.205Z,99339.42
2018-12-08T00:46:02.160Z,99336.55
2018-12-08T00:48:33.483Z,99342.17
2018-12-08T00:51:03.941Z,99342.92
2018-12-08T00:53:34.349Z,99336.75
2018-12-08T00:56:04.770Z,99347.31
2018-12-08T00:58:35.213Z,99346.97
2018-12-08T01:01:07.479Z,99348.55
2018-12-08T01:03:38.351Z,99352.55
2018-12-08T01:06:09.397Z,99358.18
2018-12-08T01:08:42.072Z,99355.91
2018-12-08T01:11:12.535Z,99359.75
2018-12-08T01:13:42.947Z,99352.73
2018-12-08T01:16:13.326Z,99351.59
2018-12-08T01:18:45.240Z,99350.91
2018-12-08T01:21:16.358Z,99362.80
2018-12-08T01:26:35.918Z,99356.48
2018-12-08T01:29:06.618Z,99342.27
2018-12-08T01:31:37.263Z,99361.48
2018-12-08T01:34:08.916Z,99358.99
2018-12-08T01:36:40.790Z,99369.75
2018-12-08T01:39:11.291Z,99371.65
2018-12-08T01:41:41.782Z,99381.17
2018-12-08T01:44:13.731Z,99380.45
2018-12-08T01:46:44.693Z,99387.41
2018-12-08T01:49:15.666Z,99405.22
2018-12-08T01:51:47.501Z,99400.30
2018-12-08T01:54:17.908Z,99409.72
2018-12-08T01:56:48.382Z,99391.72
2018-12-08T01:59:18.823Z,99405.11
2018-12-08T02:01:49.280Z,99424.16
2018-12-08T02:04:20.427Z,99414.54
2018-12-08T02:06:52.235Z,99425.27
2018-12-08T02:09:25.119Z,99424.53
2018-12-08T02:11:56.999Z,99401.95
2018-12-08T02:14:29.070Z,99405.81
2018-12-08T02:16:59.779Z,99422.27
2018-12-08T02:19:30.563Z,99419.66
2018-12-08T02:22:01.321Z,99413.27
2018-12-08T02:24:31.826Z,99420.53
2018-12-08T02:27:05.559Z,99423.42
2018-12-08T02:29:36.057Z,99412.64
2018-12-08T02:32:07.449Z,99423.52
2018-12-08T02:34:39.154Z,99420.09
2018-12-08T02:37:11.370Z,99428.92
2018-12-08T02:39:42.217Z,99423.69
2018-12-08T02:42:13.572Z,99431.27
2018-12-08T02:45:14.401Z,99417.96
2018-12-08T02:47:55.260Z,99418.98
2018-12-08T02:53:56.480Z,99418.27
2018-12-08T02:56:36.763Z,99428.30
2018-12-08T02:59:19.388Z,99410.12
2018-12-08T03:02:03.913Z,99415.13
2018-12-08T03:08:09.454Z,99401.86
2018-12-08T03:10:45.946Z,99389.58
2018-12-08T03:13:16.465Z,99404.16
2018-12-08T03:16:05.973Z,99401.02
2018-12-08T03:18:37.960Z,99395.06
2018-12-08T03:21:08.644Z,99392.48
2018-12-08T03:23:40.049Z,99393.68
2018-12-08T03:26:10.472Z,99400.25
2018-12-08T03:28:40.919Z,99404.00
2018-12-08T03:31:13.165Z,99399.22
2018-12-08T03:33:45.154Z,99408.94
2018-12-08T03:36:17.601Z,99403.30
2018-12-08T03:38:49.272Z,99400.78
2018-12-08T03:44:27.116Z,99380.47
2018-12-08T03:46:58.053Z,99391.33
2018-12-08T03:49:28.732Z,99380.16
2018-12-08T03:51:59.053Z,99389.91
2018-12-08T03:54:29.787Z,99380.95
2018-12-08T03:56:59.909Z,99388.30
2018-12-08T03:59:30.362Z,99376.72
2018-12-08T04:02:00.799Z,99376.95
2018-12-08T04:04:31.358Z,99372.88
2018-12-08T04:07:01.671Z,99364.67
2018-12-08T04:09:32.339Z,99369.05
2018-12-08T04:12:03.006Z,99371.31
2018-12-08T04:14:33.585Z,99365.47
2018-12-08T04:17:05.912Z,99366.23
2018-12-08T04:19:36.522Z,99366.23
2018-12-08T04:22:23.254Z,99367.33
2018-12-08T04:24:56.888Z,99365.07
2018-12-08T04:27:31.435Z,99372.17
2018-12-08T04:30:02.570Z,99364.20
2018-12-08T04:32:34.065Z,99362.61
2018-12-08T04:35:07.570Z,99360.43
2018-12-08T04:37:37.937Z,99358.45
2018-12-08T04:40:09.755Z,99349.88
2018-12-08T04:42:46.293Z,99366.86
2018-12-08T04:45:16.729Z,99354.88
2018-12-08T04:47:48.892Z,99364.98
2018-12-08T04:50:19.483Z,99362.07
2018-12-08T04:52:50.692Z,99359.30
2018-12-08T04:55:21.779Z,99351.38
2018-12-08T04:57:52.207Z,99346.84
2018-12-08T05:00:23.070Z,99339.44
2018-12-08T05:02:53.991Z,99342.65
2018-12-08T05:05:24.907Z,99333.74
2018-12-08T05:07:57.068Z,99325.54
2018-12-08T05:10:29.373Z,99312.38
2018-12-08T05:12:59.968Z,99315.36
2018-12-08T05:15:31.795Z,99310.97
2018-12-08T05:18:02.182Z,99296.75
2018-12-08T05:20:33.057Z,99292.77
2018-12-08T05:23:04.067Z,99303.17
2018-12-08T05:25:35.386Z,99286.73
2018-12-08T05:28:05.775Z,99296.75
2018-12-08T05:30:36.378Z,99277.17
2018-12-08T05:33:06.762Z,99270.39
2018-12-08T05:35:47.308Z,99269.94
2018-12-08T05:38:21.455Z,99262.02
2018-12-08T05:41:18.541Z,99250.54
2018-12-08T05:43:50.526Z,99257.80
2018-12-08T05:49:31.194Z,99238.53
2018-12-08T05:52:06.999Z,99229.84
2018-12-08T05:54:49.820Z,99232.73
2018-12-08T05:57:27.152Z,99240.80
2018-12-08T06:00:03.819Z,99224.53
2018-12-08T06:02:40.281Z,99223.81
2018-12-08T06:05:10.948Z,99235.88
2018-12-08T06:07:58.782Z,99216.63
2018-12-08T06:10:35.492Z,99220.58
2018-12-08T06:16:19.311Z,99219.96
2018-12-08T06:18:54.893Z,99214.12
2018-12-08T06:21:39.108Z,99220.41
2018-12-08T06:24:15.375Z,99223.67
2018-12-08T06:27:10.788Z,99221.42
2018-12-08T06:29:47.723Z,99220.63
2018-12-08T06:32:24.074Z,99211.41
2018-12-08T06:35:01.146Z,99213.09
2018-12-08T06:37:39.690Z,99222.41
2018-12-08T06:40:29.186Z,99219.52
2018-12-08T06:43:17.259Z,99228.20
2018-12-08T06:45:54.684Z,99219.69
2018-12-08T06:48:44.764Z,99223.11
2018-12-08T06:51:25.107Z,99221.23
2018-12-08T06:54:01.457Z,99218.41
2018-12-08T06:56:45.265Z,99217.48
2018-12-08T06:59:28.429Z,99218.09
2018-12-08T07:02:04.206Z,99221.69
2018-12-08T07:04:47.545Z,99207.67
2018-12-08T07:07:24.712Z,99193.01
2018-12-08T07:10:10.349Z,99206.34
2018-12-08T07:13:05.565Z,99218.85
2018-12-08T07:15:45.191Z,99209.94
2018-12-08T07:21:39.670Z,99206.90
2018-12-08T07:27:21.283Z,99198.31
2018-12-08T07:29:52.264Z,99201.86
2018-12-08T07:38:37.502Z,99186.98
2018-12-08T07:41:08.163Z,99168.86
2018-12-08T07:43:54.883Z,99156.82
2018-12-08T07:46:31.778Z,99175.81
2018-12-08T07:49:13.152Z,99166.70
2018-12-08T07:52:02.801Z,99162.77
2018-12-08T08:01:02.423Z,99148.94
2018-12-08T08:03:38.409Z,99148.20
2018-12-08T08:06:29.777Z,99149.14
2018-12-08T08:09:06.676Z,99152.63
2018-12-08T08:11:42.229Z,99146.18
2018-12-08T08:14:20.535Z,99149.13
2018-12-08T08:20:02.008Z,99136.60
2018-12-08T08:22:49.020Z,99136.86
2018-12-08T08:32:10.353Z,99118.95
2018-12-08T08:34:49.429Z,99119.14
2018-12-08T08:37:27.229Z,99111.05
2018-12-08T08:43:13.620Z,99114.11
2018-12-08T08:45:56.496Z,99113.55
2018-12-08T08:48:32.669Z,99110.80
2018-12-08T08:51:04.531Z,99129.34
2018-12-08T08:53:41.568Z,99096.04
2018-12-08T08:56:16.221Z,99101.66
2018-12-08T08:58:52.184Z,99094.80
2018-12-08T09:01:30.524Z,99096.43
2018-12-08T09:04:11.242Z,99092.72
2018-12-08T09:06:54.073Z,99092.42
2018-12-08T09:09:30.498Z,99082.73
2018-12-08T09:12:07.505Z,99079.19
2018-12-08T09:14:44.319Z,99076.91
2018-12-08T09:17:21.397Z,99070.34
2018-12-08T09:19:56.053Z,99069.97
2018-12-08T09:22:35.130Z,99064.33
2018-12-08T09:25:12.189Z,99057.95
2018-12-08T09:27:50.026Z,99063.87
2018-12-08T09:30:28.343Z,99074.72
2018-12-08T09:33:04.718Z,99070.05
2018-12-08T09:35:47.201Z,99067.77
2018-12-08T09:38:23.842Z,99064.16
2018-12-08T09:40:57.873Z,99041.67
2018-12-08T09:43:33.218Z,99051.20
2018-12-08T09:46:18.638Z,99042.27
2018-12-08T09:48:53.441Z,99040.74
2018-12-08T09:51:31.110Z,99026.63
2018-12-08T09:54:03.686Z,99014.73
2018-12-08T09:56:51.392Z,99022.55
2018-12-08T09:59:34.087Z,99026.64
2018-12-08T10:02:18.814Z,99026.56
2018-12-08T10:04:55.666Z,99010.27
2018-12-08T10:10:34.902Z,99033.42
2018-12-08T10:13:12.690Z,99021.23
2018-12-08T10:19:57.414Z,99012.59
2018-12-08T10:22:40.212Z,98999.52
2018-12-08T10:25:20.758Z,98999.27
2018-12-08T10:27:58.475Z,98986.71
2018-12-08T10:30:36.414Z,98986.81
2018-12-08T10:33:13.213Z,99002.70
2018-12-08T10:35:50.203Z,98981.84
2018-12-08T10:38:27.064Z,98988.59
2018-12-08T10:41:06.320Z,98972.14
2018-12-08T10:43:48.988Z,98968.63
2018-12-08T10:46:33.532Z,98988.03
2018-12-08T10:49:08.792Z,98959.38
2018-12-08T10:51:43.146Z,98963.30
2018-12-08T10:54:24.880Z,98951.67
2018-12-08T10:56:59.939Z,98946.34
2018-12-08T10:59:36.928Z,98956.05
2018-12-08T11:02:29.334Z,98944.72
2018-12-08T11:05:08.018Z,98944.72
2018-12-08T11:07:44.691Z,98937.02
2018-12-08T11:10:23.302Z,98948.92
2018-12-08T11:12:58.527Z,98929.30
2018-12-08T11:15:35.825Z,98926.25
2018-12-08T11:18:11.791Z,98925.20
2018-12-08T11:20:46.016Z,98915.88
2018-12-08T11:23:23.131Z,98912.13
2018-12-08T11:26:02.826Z,98916.91
2018-12-08T11:28:37.349Z,98921.14
2018-12-08T11:31:15.498Z,98901.68
2018-12-08T11:33:52.533Z,98916.91
2018-12-08T11:36:32.829Z,98911.92
2018-12-08T11:39:19.567Z,98905.64
2018-12-08T11:41:56.807Z,98895.16
2018-12-08T11:44:32.941Z,98899.05
2018-12-08T11:47:11.363Z,98894.45
2018-12-08T11:49:43.382Z,98888.05
2018-12-08T11:52:20.552Z,98898.05
2018-12-08T11:54:57.278Z,98894.71
2018-12-08T11:57:34.901Z,98880.32
2018-12-08T12:00:19.282Z,98908.59
2018-12-08T12:02:56.120Z,98875.94
2018-12-08T12:05:32.385Z,98878.83
2018-12-08T12:08:09.382Z,98879.21
2018-12-08T12:10:47.353Z,98876.93
2018-12-08T12:13:22.155Z,98879.48
2018-12-08T12:16:04.808Z,98871.99
2018-12-08T12:18:42.297Z,98875.05
2018-12-08T12:21:16.576Z,98863.15
2018-12-08T12:23:53.394Z,98864.16
2018-12-08T12:26:30.633Z,98873.83
2018-12-08T12:29:18.150Z,98864.70
2018-12-08T12:31:55.966Z,98868.52
2018-12-08T12:34:33.165Z,98860.63
2018-12-08T12:37:09.605Z,98863.38
2018-12-08T12:39:47.361Z,98862.04
2018-12-08T12:42:28.228Z,98859.19
2018-12-08T12:45:09.354Z,98851.31
2018-12-08T12:47:54.018Z,98845.14
2018-12-08T12:50:31.201Z,98843.64
2018-12-08T12:53:11.201Z,98840.34
2018-12-08T12:55:47.948Z,98853.73
2018-12-08T12:58:29.854Z,98846.69
2018-12-08T13:01:11.887Z,98850.03
2018-12-08T13:03:48.216Z,98847.64
2018-12-08T13:06:27.491Z,98838.41
2018-12-08T13:09:03.717Z,98849.69
2018-12-08T13:11:44.487Z,98849.69
2018-12-08T13:14:20.728Z,98842.52
2018-12-08T13:16:58.223Z,98844.70
2018-12-08T13:19:32.761Z,98845.35
2018-12-08T13:22:13.774Z,98842.69
2018-12-08T13:24:50.906Z,98844.02
2018-12-08T13:27:46.053Z,98827.44
2018-12-08T13:30:23.617Z,98822.83
2018-12-08T13:32:58.515Z,98838.81
2018-12-08T13:36:00.270Z,98832.22
2018-12-08T13:41:58.494Z,98828.61
2018-12-08T13:44:38.589Z,98847.30
2018-12-08T13:47:18.487Z,98842.07
2018-12-08T13:49:54.702Z,98834.68
2018-12-08T13:52:29.153Z,98847.45
2018-12-08T13:55:03.625Z,98823.32
2018-12-08T13:57:50.453Z,98835.33
2018-12-08T14:00:30.066Z,98836.94
2018-12-08T14:06:42.912Z,98829.84
2018-12-08T14:09:21.406Z,98827.89
2018-12-08T14:12:06.727Z,98830.90
2018-12-08T14:14:44.060Z,98834.75
2018-12-08T14:17:24.920Z,98831.47
2018-12-08T14:20:12.705Z,98812.75
2018-12-08T14:22:56.747Z,98818.46
2018-12-08T14:34:50.312Z,98811.27
2018-12-08T14:37:30.593Z,98800.74
2018-12-08T14:40:11.220Z,98819.00
2018-12-08T14:42:46.650Z,98794.38
2018-12-08T14:45:25.096Z,98808.86
2018-12-08T14:48:09.286Z,98799.87
2018-12-08T15:23:17.182Z,98798.91
2018-12-08T15:26:00.548Z,98778.43
2018-12-08T15:28:45.609Z,98794.72
2018-12-08T15:31:23.109Z,98788.65
2018-12-08T15:34:06.737Z,98786.55
2018-12-08T15:36:48.013Z,98792.77
2018-12-08T15:39:31.346Z,98799.94
2018-12-08T15:42:09.409Z,98799.59
2018-12-08T15:44:49.002Z,98783.73
2018-12-08T15:47:32.668Z,98804.63
2018-12-08T15:50:13.761Z,98807.15
2018-12-08T15:52:53.280Z,98796.09
2018-12-08T15:55:28.056Z,98798.95
2018-12-08T15:58:15.209Z,98802.46
2018-12-08T16:04:04.689Z,98779.11
2018-12-08T16:06:45.698Z,98786.66
2018-12-08T16:09:21.941Z,98802.30
2018-12-08T16:12:02.952Z,98792.39
2018-12-08T16:14:40.123Z,98791.48
2018-12-08T16:17:17.213Z,98799.22
2018-12-08T16:19:54.665Z,98783.23
2018-12-08T16:22:54.656Z,98793.62
2018-12-08T16:25:33.492Z,98796.20
2018-12-08T16:28:13.342Z,98771.07
2018-12-08T16:30:51.491Z,98787.73
2018-12-08T16:33:29.903Z,98786.70
2018-12-08T16:36:06.796Z,98776.09
2018-12-08T16:38:47.534Z,98781.09
2018-12-08T16:41:31.687Z,98797.45
2018-12-08T16:44:09.618Z,98789.64
2018-12-08T16:46:44.449Z,98796.80
2018-12-08T16:49:24.760Z,98788.80
2018-12-08T16:52:06.814Z,98780.41
2018-12-08T16:54:48.388Z,98779.95
2018-12-08T16:57:28.124Z,98777.28
2018-12-08T17:00:06.299Z,98782.66
2018-12-08T17:02:40.788Z,98773.92
2018-12-08T17:05:22.709Z,98775.03
2018-12-08T17:08:03.549Z,98784.45
2018-12-08T17:10:40.029Z,98786.39
2018-12-08T17:13:20.735Z,98793.64
2018-12-08T17:16:10.405Z,98776.63
2018-12-08T17:18:51.557Z,98796.15
2018-12-08T17:21:47.359Z,98794.86
2018-12-08T17:24:25.150Z,98801.07
2018-12-08T17:27:10.018Z,98804.80
2018-12-08T17:29:44.812Z,98803.95
2018-12-08T17:32:22.362Z,98794.94
2018-12-08T17:35:03.968Z,98783.89
2018-12-08T17:37:40.511Z,98774.33
2018-12-08T17:40:20.565Z,98772.42
2018-12-08T17:42:57.809Z,98738.16
2018-12-08T17:45:32.681Z,98790.81
2018-12-08T17:48:10.527Z,98794.20
2018-12-08T17:50:53.581Z,98776.02
2018-12-08T17:53:32.458Z,98794.63
2018-12-08T17:56:14.139Z,98784.11
2018-12-08T17:59:02.235Z,98792.95
2018-12-08T18:01:51.254Z,98774.23
2018-12-08T18:04:35.623Z,98790.66
2018-12-08T18:07:25.485Z,98774.23
2018-12-08T18:10:06.087Z,98780.95
2018-12-08T18:12:44.235Z,98787.13
2018-12-08T18:15:34.439Z,98778.55
2018-12-08T18:18:18.920Z,98775.72
2018-12-08T18:20:56.332Z,98774.77
2018-12-08T18:27:03.351Z,98782.85
2018-12-08T18:29:56.252Z,98778.28
2018-12-08T18:32:37.126Z,98769.51
2018-12-08T18:35:20.589Z,98794.02
2018-12-08T18:37:57.870Z,98765.63
2018-12-08T18:40:35.927Z,98775.59
2018-12-08T18:43:26.475Z,98758.25
2018-12-08T18:46:04.531Z,98760.58
2018-12-08T18:48:45.138Z,98757.41
2018-12-08T18:51:40.782Z,98750.10
2018-12-08T18:54:23.542Z,98745.98
2018-12-08T18:57:13.129Z,98762.99
2018-12-08T18:59:53.970Z,98767.02
2018-12-08T19:02:35.623Z,98752.49
2018-12-08T19:05:14.738Z,98746.36
2018-12-08T19:08:03.410Z,98755.70
2018-12-08T19:10:48.927Z,98756.72
2018-12-08T19:16:38.133Z,98749.94
2018-12-08T19:19:24.018Z,98738.20
2018-12-08T19:22:00.993Z,98754.97
2018-12-08T19:24:44.811Z,98741.90
2018-12-08T19:27:26.620Z,98737.94
2018-12-08T19:30:09.464Z,98743.05
2018-12-08T19:35:23.136Z,98744.72
2018-12-08T19:38:03.710Z,98740.98
2018-12-08T19:40:45.536Z,98713.81
2018-12-08T19:43:28.886Z,98728.98
2018-12-08T19:46:24.268Z,98711.56
2018-12-08T19:49:02.785Z,98693.08
2018-12-08T19:51:42.038Z,98713.98
2018-12-08T19:54:20.347Z,98712.98
2018-12-08T19:57:01.062Z,98707.92
2018-12-08T19:59:43.471Z,98703.28
2018-12-08T20:02:26.429Z,98705.34
2018-12-08T20:05:05.914Z,98706.06
2018-12-08T20:07:47.578Z,98710.91
2018-12-08T20:10:37.219Z,98698.41
2018-12-08T20:13:16.366Z,98692.23
2018-12-08T20:15:56.894Z,98703.02
2018-12-08T20:18:35.576Z,98693.83
2018-12-08T20:21:23.408Z,98671.47
2018-12-08T20:24:02.808Z,98675.23
2018-12-08T20:26:46.125Z,98663.39
2018-12-08T20:29:39.568Z,98656.08
2018-12-08T20:32:22.488Z,98648.45
2018-12-08T20:35:09.954Z,98642.52
2018-12-08T20:37:50.301Z,98640.61
2018-12-08T20:45:31.096Z,98638.81
2018-12-08T20:48:03.776Z,98631.84
2018-12-08T20:50:43.787Z,98619.68
2018-12-08T20:53:24.292Z,98621.36
2018-12-08T20:56:07.940Z,98622.77
2018-12-08T20:58:52.702Z,98619.58
2018-12-08T21:01:24.733Z,98612.45
2018-12-08T21:04:08.892Z,98607.69
2018-12-08T21:06:55.138Z,98608.88
2018-12-08T21:09:35.758Z,98612.00
2018-12-08T21:12:19.721Z,98602.90
2018-12-08T21:15:11.658Z,98601.63
2018-12-08T21:17:58.919Z,98594.44
2018-12-08T21:20:36.346Z,98593.80
2018-12-08T21:23:21.853Z,98586.48
2018-12-08T21:25:59.262Z,98586.02
2018-12-08T21:28:35.604Z,98576.20
2018-12-08T21:31:25.617Z,98581.19
2018-12-08T21:34:03.219Z,98577.72
2018-12-08T21:36:48.024Z,98570.98
2018-12-08T21:39:35.816Z,98555.22
2018-12-08T21:42:18.804Z,98553.16
2018-12-08T21:44:55.323Z,98556.78
2018-12-08T21:47:30.863Z,98542.77
2018-12-08T21:50:10.175Z,98548.78
2018-12-08T21:52:52.247Z,98524.25
2018-12-08T21:55:30.961Z,98533.48
2018-12-08T21:58:07.860Z,98518.13
2018-12-08T22:00:42.808Z,98525.36
2018-12-08T22:03:20.386Z,98528.02
2018-12-08T22:05:58.465Z,98522.66
2018-12-08T22:08:36.769Z,98513.82
2018-12-08T22:11:13.796Z,98500.80
2018-12-08T22:13:54.452Z,98514.77
2018-12-08T22:16:33.576Z,98505.88
2018-12-08T22:19:11.893Z,98497.77
2018-12-08T22:21:51.555Z,98499.47
2018-12-08T22:30:40.336Z,98488.59
2018-12-08T22:33:18.582Z,98477.17
2018-12-08T22:39:42.959Z,98453.55
2018-12-08T22:42:26.071Z,98454.94
2018-12-08T22:45:01.375Z,98462.50
2018-12-08T22:47:41.093Z,98444.59
2018-12-08T22:50:25.342Z,98442.68
2018-12-08T22:53:08.813Z,98439.52
2018-12-08T22:55:55.865Z,98443.16
2018-12-08T22:58:32.298Z,98434.05
2018-12-08T23:01:12.708Z,98447.09
2018-12-08T23:03:58.193Z,98421.73
2018-12-08T23:06:50.659Z,98415.91
2018-12-08T23:09:28.102Z,98399.89
2018-12-08T23:12:04.665Z,98394.19
2018-12-08T23:14:41.350Z,98389.55
2018-12-08T23:17:21.420Z,98383.14
2018-12-08T23:19:59.106Z,98378.94
2018-12-08T23:22:36.338Z,98370.71
2018-12-08T23:25:12.441Z,98369.22
2018-12-08T23:27:44.689Z,98363.65
2018-12-08T23:30:18.678Z,98362.70
2018-12-08T23:32:55.190Z,98357.94
2018-12-08T23:35:33.737Z,98350.54
2018-12-08T23:38:17.970Z,98357.52
2018-12-08T23:40:55.186Z,98350.16
2018-12-08T23:43:33.495Z,98345.92
2018-12-08T23:46:11.360Z,98345.44
2018-12-08T23:49:24.405Z,98337.35
2018-12-08T23:51:59.460Z,98327.78
2018-12-08T23:54:35.615Z,98321.69
2018-12-08T23:57:09.094Z,98329.50
2018-12-08T23:59:47.150Z,98320.17
